Time;durP1;ratioP1;P1;durP2;ratioP2;P2;SDS_P1;SDS_P2;PMS_P1;PMS_P2;Temp;Humidity;BMP_temperature;BMP_pressure;BME280_temperature;BME280_humidity;BME280_pressure;Samples;Min_cycle;Max_cycle;Signal;HPM_P1;HPM_P2
2022/09/15 00:01:54;;;;;;;0.00;0.00;;;13.10;99.90;;;;;;5069970;28;20487;-81
2022/09/15 00:04:19;;;;;;;0.00;0.00;;;13.20;99.90;;;;;;5068790;28;20045;-81
2022/09/15 00:06:45;;;;;;;0.10;0.10;;;13.20;99.90;;;;;;5086111;28;20041;-81
2022/09/15 00:09:11;;;;;;;0.00;0.00;;;13.10;99.90;;;;;;5070130;28;20515;-81
2022/09/15 00:11:37;;;;;;;0.00;0.00;;;13.20;99.90;;;;;;5086667;28;20045;-81
2022/09/15 00:14:05;;;;;;;0.00;0.00;;;13.10;99.90;;;;;;5069989;28;20048;-81
2022/09/15 00:16:31;;;;;;;0.00;0.00;;;13.10;99.90;;;;;;5086418;28;20473;-81
2022/09/15 00:18:59;;;;;;;0.00;0.00;;;13.20;99.90;;;;;;5069500;28;20104;-81
2022/09/15 00:21:27;;;;;;;0.00;0.00;;;13.20;99.90;;;;;;5069711;28;20052;-81
2022/09/15 00:23:53;;;;;;;0.00;0.00;;;13.20;99.90;;;;;;5069747;28;20083;-81
2022/09/15 00:26:22;;;;;;;0.00;0.00;;;13.30;99.90;;;;;;5069965;28;20103;-81
2022/09/15 00:28:48;;;;;;;0.00;0.00;;;13.30;99.90;;;;;;5069772;28;20469;-81
2022/09/15 00:31:16;;;;;;;0.00;0.00;;;13.30;99.90;;;;;;5086465;28;20045;-81
2022/09/15 00:33:45;;;;;;;0.00;0.00;;;13.30;99.90;;;;;;5069651;28;20041;-81
2022/09/15 00:36:13;;;;;;;0.00;0.00;;;13.20;99.90;;;;;;5069344;28;20102;-81
2022/09/15 00:38:39;;;;;;;0.10;0.10;;;13.20;99.90;;;;;;5086465;28;20056;-81
2022/09/15 00:41:06;;;;;;;0.00;0.00;;;13.20;99.90;;;;;;5086378;28;20049;-81
2022/09/15 00:43:52;;;;;;;0.00;0.00;;;13.20;99.90;;;;;;5036173;28;20155;-81
2022/09/15 00:46:28;;;;;;;0.00;0.00;;;13.20;99.90;;;;;;5070191;28;20045;-81
2022/09/15 00:49:03;;;;;;;0.00;0.00;;;13.20;99.90;;;;;;5069981;28;20079;-81
2022/09/15 00:51:37;;;;;;;0.00;0.00;;;13.20;99.90;;;;;;5086462;28;20131;-81
2022/09/15 00:54:08;;;;;;;0.00;0.00;;;13.20;99.90;;;;;;5069579;28;20623;-81
2022/09/15 00:56:35;;;;;;;0.00;0.00;;;13.20;99.90;;;;;;5068705;28;20136;-81
2022/09/15 00:59:04;;;;;;;0.00;0.00;;;13.10;99.90;;;;;;5086242;28;20052;-81
2022/09/15 01:01:30;;;;;;;0.00;0.00;;;13.20;99.90;;;;;;5069727;28;20052;-81
2022/09/15 01:03:57;;;;;;;0.00;0.00;;;13.20;99.90;;;;;;5086071;28;20393;-81
2022/09/15 01:06:34;;;;;;;0.00;0.00;;;13.20;99.90;;;;;;5069015;28;20520;-81
2022/09/15 01:09:13;;;;;;;0.00;0.00;;;13.10;99.90;;;;;;5086654;28;20052;-81
2022/09/15 01:11:40;;;;;;;0.00;0.00;;;13.10;99.90;;;;;;5052963;28;20405;-81
2022/09/15 01:14:06;;;;;;;0.00;0.00;;;13.10;99.90;;;;;;5069063;28;20057;-81
2022/09/15 01:17:02;;;;;;;0.03;0.03;;;13.10;99.90;;;;;;5035294;28;20569;-81
2022/09/15 01:19:56;;;;;;;0.00;0.00;;;13.00;99.90;;;;;;5034716;28;20186;-81
2022/09/15 01:22:42;;;;;;;0.00;0.00;;;13.00;99.90;;;;;;5018270;28;20091;-81
2022/09/15 01:25:27;;;;;;;0.00;0.00;;;13.00;99.90;;;;;;5018396;28;20037;-81
2022/09/15 01:28:18;;;;;;;0.00;0.00;;;13.00;99.90;;;;;;5034868;28;20040;-81
2022/09/15 01:30:57;;;;;;;0.00;0.00;;;13.00;99.90;;;;;;5035074;28;20049;-81
2022/09/15 01:33:26;;;;;;;0.38;0.35;;;13.00;99.90;;;;;;5034778;28;20048;-81
2022/09/15 01:36:12;;;;;;;0.00;0.00;;;13.00;99.90;;;;;;5034263;28;20063;-81
2022/09/15 01:39:01;;;;;;;0.00;0.00;;;13.00;99.90;;;;;;5034733;28;20110;-81
2022/09/15 01:41:38;;;;;;;0.00;0.00;;;13.00;99.90;;;;;;5034698;28;20041;-81
2022/09/15 01:44:25;;;;;;;0.00;0.00;;;13.10;99.90;;;;;;5018194;28;20460;-81
2022/09/15 01:46:58;;;;;;;0.00;0.00;;;13.10;99.90;;;;;;5018121;28;20135;-81
2022/09/15 01:49:32;;;;;;;0.00;0.00;;;13.10;99.90;;;;;;5034595;28;20061;-81
2022/09/15 01:51:58;;;;;;;0.00;0.00;;;13.10;99.90;;;;;;5018149;28;20048;-81
2022/09/15 01:54:31;;;;;;;0.00;0.00;;;13.10;99.90;;;;;;5034157;28;20049;-81
2022/09/15 01:56:58;;;;;;;0.00;0.00;;;13.10;99.90;;;;;;5050834;28;20056;-81
2022/09/15 01:59:24;;;;;;;0.00;0.00;;;13.10;99.90;;;;;;5068556;28;20083;-81
2022/09/15 02:02:04;;;;;;;0.00;0.00;;;13.20;99.90;;;;;;5068616;28;20416;-81
2022/09/15 02:04:38;;;;;;;0.03;0.03;;;13.20;99.90;;;;;;5088949;28;20040;-81
2022/09/15 02:07:25;;;;;;;0.00;0.00;;;13.20;99.90;;;;;;5071931;28;20057;-81
2022/09/15 02:10:12;;;;;;;0.00;0.00;;;13.20;99.90;;;;;;5088949;28;20075;-81
2022/09/15 02:12:51;;;;;;;0.00;0.00;;;13.20;99.90;;;;;;5072353;28;20138;-81
2022/09/15 02:15:32;;;;;;;0.00;0.00;;;13.30;99.90;;;;;;5071315;28;20131;-81
2022/09/15 02:18:01;;;;;;;0.00;0.00;;;13.30;99.90;;;;;;5072753;28;20389;-81
2022/09/15 02:20:51;;;;;;;0.00;0.00;;;13.30;99.90;;;;;;5088856;28;20128;-81
2022/09/15 02:23:28;;;;;;;0.00;0.00;;;13.30;99.90;;;;;;5038659;28;20374;-81
2022/09/15 02:26:04;;;;;;;0.00;0.00;;;13.30;99.90;;;;;;5088777;28;20190;-81
2022/09/15 02:28:35;;;;;;;0.00;0.00;;;13.40;99.90;;;;;;5071759;28;20496;-81
2022/09/15 02:31:02;;;;;;;0.00;0.00;;;13.40;99.90;;;;;;5071949;28;20496;-81
2022/09/15 02:33:34;;;;;;;0.00;0.00;;;13.40;99.90;;;;;;5055176;28;20044;-81
2022/09/15 02:36:01;;;;;;;0.00;0.00;;;13.40;99.90;;;;;;5088481;28;20049;-81
2022/09/15 02:38:32;;;;;;;0.75;0.10;;;13.40;99.90;;;;;;5088431;28;20057;-81
2022/09/15 02:40:58;;;;;;;0.05;0.05;;;13.40;99.90;;;;;;5088690;28;20041;-81
2022/09/15 02:43:23;;;;;;;0.00;0.00;;;13.40;99.90;;;;;;5071518;28;20049;-81
2022/09/15 02:45:49;;;;;;;0.00;0.00;;;13.40;99.90;;;;;;5088417;28;20076;-81
2022/09/15 02:48:18;;;;;;;0.17;0.00;;;13.40;99.90;;;;;;5088659;28;20072;-81
2022/09/15 02:50:44;;;;;;;0.00;0.00;;;13.30;99.90;;;;;;5071499;28;20099;-81
2022/09/15 02:53:09;;;;;;;0.00;0.00;;;13.30;99.90;;;;;;5087969;28;20049;-81
2022/09/15 02:55:35;;;;;;;0.00;0.00;;;13.30;99.90;;;;;;5087738;28;20517;-81
2022/09/15 02:58:01;;;;;;;0.00;0.00;;;13.40;99.90;;;;;;5071463;28;20443;-81
2022/09/15 03:00:27;;;;;;;0.00;0.00;;;13.30;99.90;;;;;;5071283;28;20087;-81
2022/09/15 03:02:54;;;;;;;0.00;0.00;;;13.30;99.90;;;;;;5071250;28;20099;-81
2022/09/15 03:05:28;;;;;;;0.00;0.00;;;13.30;99.90;;;;;;5088007;28;20051;-81
2022/09/15 03:07:55;;;;;;;0.00;0.00;;;13.30;99.90;;;;;;5071199;28;20547;-81
2022/09/15 03:10:21;;;;;;;0.00;0.00;;;13.40;99.90;;;;;;5071545;28;20483;-81
2022/09/15 03:12:50;;;;;;;0.00;0.00;;;13.30;99.90;;;;;;5070917;28;20144;-81
2022/09/15 03:15:18;;;;;;;0.00;0.00;;;13.30;99.90;;;;;;5070950;28;20045;-81
2022/09/15 03:17:45;;;;;;;0.00;0.00;;;13.30;99.90;;;;;;5087769;28;20044;-81
2022/09/15 03:20:14;;;;;;;0.00;0.00;;;13.30;99.90;;;;;;5070811;28;20059;-81
2022/09/15 03:22:40;;;;;;;0.00;0.00;;;13.30;99.90;;;;;;5071142;28;20052;-81
2022/09/15 03:25:07;;;;;;;0.00;0.00;;;13.30;99.90;;;;;;5087300;28;20164;-81
2022/09/15 03:27:36;;;;;;;0.00;0.00;;;13.40;99.90;;;;;;5071008;28;20045;-81
2022/09/15 03:30:04;;;;;;;0.00;0.00;;;13.40;99.90;;;;;;5087545;28;20056;-81
2022/09/15 03:32:29;;;;;;;0.00;0.00;;;13.40;99.90;;;;;;5087423;28;20049;-81
2022/09/15 03:34:55;;;;;;;0.00;0.00;;;13.50;99.90;;;;;;5087315;28;20048;-81
2022/09/15 03:37:20;;;;;;;0.00;0.00;;;13.50;99.90;;;;;;5087510;28;20393;-81
2022/09/15 03:39:49;;;;;;;0.00;0.00;;;13.50;99.90;;;;;;5053925;28;20048;-81
2022/09/15 03:42:15;;;;;;;0.00;0.00;;;13.50;99.90;;;;;;5087261;28;20041;-81
2022/09/15 03:44:40;;;;;;;0.00;0.00;;;13.50;99.90;;;;;;5086916;28;20045;-81
2022/09/15 03:47:06;;;;;;;0.00;0.00;;;13.50;99.90;;;;;;5069788;28;20056;-82
2022/09/15 03:49:32;;;;;;;0.00;0.00;;;13.50;99.90;;;;;;5085626;28;20051;-81
2022/09/15 03:51:58;;;;;;;0.00;0.00;;;13.50;99.90;;;;;;5068763;28;20049;-82
2022/09/15 03:54:25;;;;;;;0.00;0.00;;;13.60;99.90;;;;;;5086752;28;20503;-81
2022/09/15 03:56:50;;;;;;;0.00;0.00;;;13.50;99.90;;;;;;5069706;28;20104;-81
2022/09/15 03:59:20;;;;;;;0.00;0.00;;;13.50;99.90;;;;;;5069748;28;20056;-81
2022/09/15 04:01:47;;;;;;;0.00;0.00;;;13.50;99.90;;;;;;5070010;28;20443;-82
2022/09/15 04:04:15;;;;;;;0.00;0.00;;;13.60;99.90;;;;;;5086984;28;20075;-81
2022/09/15 04:06:41;;;;;;;0.00;0.00;;;13.50;99.90;;;;;;5070092;28;20067;-81
2022/09/15 04:09:07;;;;;;;0.00;0.00;;;13.50;99.90;;;;;;5069878;28;20053;-81
2022/09/15 04:11:33;;;;;;;0.00;0.00;;;13.50;99.90;;;;;;5086619;28;20057;-82
2022/09/15 04:13:59;;;;;;;0.00;0.00;;;13.50;99.90;;;;;;5069795;28;20133;-81
2022/09/15 04:16:26;;;;;;;0.00;0.00;;;13.50;99.90;;;;;;5086292;28;20044;-81
2022/09/15 04:18:54;;;;;;;0.00;0.00;;;13.50;99.90;;;;;;5069677;28;20090;-81
2022/09/15 04:21:21;;;;;;;0.00;0.00;;;13.50;99.90;;;;;;5053132;28;20045;-81
2022/09/15 04:23:48;;;;;;;0.00;0.00;;;13.50;99.90;;;;;;5069801;28;20396;-82
2022/09/15 04:26:27;;;;;;;0.00;0.00;;;13.50;99.90;;;;;;5068734;28;20052;-82
2022/09/15 04:28:52;;;;;;;0.00;0.00;;;13.50;99.90;;;;;;5086106;28;20068;-81
2022/09/15 04:31:19;;;;;;;0.00;0.00;;;13.50;99.90;;;;;;5086620;28;20481;-81
2022/09/15 04:33:45;;;;;;;0.40;0.08;;;13.50;99.90;;;;;;5069541;28;20056;-81
2022/09/15 04:36:20;;;;;;;0.00;0.00;;;13.50;99.90;;;;;;5086181;28;20045;-81
2022/09/15 04:38:46;;;;;;;0.00;0.00;;;13.50;99.90;;;;;;5086347;28;20060;-81
2022/09/15 04:41:13;;;;;;;0.00;0.00;;;13.50;99.90;;;;;;5036140;28;20504;-81
2022/09/15 04:43:39;;;;;;;0.00;0.00;;;13.50;99.90;;;;;;5085894;28;20037;-82
2022/09/15 04:46:06;;;;;;;0.17;0.10;;;13.50;99.90;;;;;;5086241;28;20514;-81
2022/09/15 04:48:32;;;;;;;0.00;0.00;;;13.50;99.90;;;;;;5036098;28;20103;-81
2022/09/15 04:51:03;;;;;;;0.00;0.00;;;13.50;99.90;;;;;;5069543;28;20064;-81
2022/09/15 04:53:29;;;;;;;0.00;0.00;;;13.50;99.90;;;;;;5086174;28;20495;-81
2022/09/15 04:56:02;;;;;;;0.00;0.00;;;13.50;99.90;;;;;;5068565;28;20492;-82
2022/09/15 04:58:27;;;;;;;0.00;0.00;;;13.40;99.90;;;;;;5068901;28;20049;-81
2022/09/15 05:00:53;;;;;;;0.00;0.00;;;13.40;99.90;;;;;;5085953;28;20041;-81
2022/09/15 05:03:19;;;;;;;0.00;0.00;;;13.40;99.90;;;;;;5069066;28;20090;-81
2022/09/15 05:05:46;;;;;;;0.00;0.00;;;13.40;99.90;;;;;;5086235;28;20049;-81
2022/09/15 05:08:12;;;;;;;0.35;0.15;;;13.40;99.90;;;;;;5035892;28;20041;-81
2022/09/15 05:10:38;;;;;;;0.00;0.00;;;13.40;99.90;;;;;;5085943;28;20049;-81
2022/09/15 05:13:04;;;;;;;0.00;0.00;;;13.40;99.90;;;;;;5085780;28;20096;-81
2022/09/15 05:15:30;;;;;;;0.28;0.13;;;13.40;99.90;;;;;;5035953;28;20195;-81
2022/09/15 05:17:55;;;;;;;1.50;0.35;;;13.40;99.90;;;;;;5069069;28;20068;-81
2022/09/15 05:20:21;;;;;;;0.00;0.00;;;13.30;99.90;;;;;;5085931;28;20416;-81
2022/09/15 05:22:47;;;;;;;0.00;0.00;;;13.40;99.90;;;;;;5085841;28;20503;-81
2022/09/15 05:25:12;;;;;;;0.00;0.00;;;13.40;99.90;;;;;;5086239;28;20037;-81
2022/09/15 05:27:38;;;;;;;0.00;0.00;;;13.30;99.90;;;;;;5052845;28;20045;-81
2022/09/15 05:30:05;;;;;;;0.00;0.00;;;13.40;99.90;;;;;;5068887;28;20140;-81
2022/09/15 05:32:34;;;;;;;0.00;0.00;;;13.30;99.90;;;;;;5085761;28;20393;-81
2022/09/15 05:35:00;;;;;;;0.55;0.25;;;13.40;99.90;;;;;;5085516;28;20135;-81
2022/09/15 05:37:25;;;;;;;0.00;0.00;;;13.40;99.90;;;;;;5069187;28;20140;-81
2022/09/15 05:39:51;;;;;;;0.00;0.00;;;13.40;99.90;;;;;;5089663;28;20048;-81
2022/09/15 05:42:17;;;;;;;0.00;0.00;;;13.40;99.90;;;;;;5072757;28;20370;-81
2022/09/15 05:44:43;;;;;;;0.00;0.00;;;13.40;99.90;;;;;;5072723;28;20099;-81
2022/09/15 05:47:09;;;;;;;0.20;0.20;;;13.40;99.90;;;;;;5089016;28;20085;-81
2022/09/15 05:49:34;;;;;;;0.00;0.00;;;13.50;99.90;;;;;;5090284;28;20055;-81
2022/09/15 05:52:00;;;;;;;0.00;0.00;;;13.50;99.90;;;;;;5089458;28;20428;-80
2022/09/15 05:54:26;;;;;;;0.00;0.00;;;13.50;99.90;;;;;;5090094;28;20449;-81
2022/09/15 05:56:52;;;;;;;0.00;0.00;;;13.50;99.90;;;;;;5072469;28;20084;-81
2022/09/15 05:59:18;;;;;;;0.00;0.00;;;13.60;99.90;;;;;;5072479;28;20060;-81
2022/09/15 06:01:43;;;;;;;0.00;0.00;;;13.60;99.90;;;;;;5089453;28;20037;-79
2022/09/15 06:04:09;;;;;;;0.00;0.00;;;13.50;99.90;;;;;;5089297;28;20127;-81
2022/09/15 06:06:34;;;;;;;0.00;0.00;;;13.60;99.90;;;;;;5072312;28;20049;-81
2022/09/15 06:09:03;;;;;;;0.00;0.00;;;13.60;99.90;;;;;;5071997;28;20057;-81
2022/09/15 06:11:32;;;;;;;0.00;0.00;;;13.60;99.90;;;;;;5072357;28;20059;-80
2022/09/15 06:13:59;;;;;;;0.00;0.00;;;13.60;99.90;;;;;;5072359;28;20048;-80
2022/09/15 06:16:25;;;;;;;0.00;0.00;;;13.70;99.90;;;;;;5088980;28;20047;-80
2022/09/15 06:18:52;;;;;;;0.00;0.00;;;13.70;99.90;;;;;;5071846;28;20467;-83
2022/09/15 06:21:24;;;;;;;0.00;0.00;;;13.70;99.90;;;;;;5088571;28;20057;-81
2022/09/15 06:24:02;;;;;;;0.00;0.00;;;13.80;99.90;;;;;;5088529;28;20405;-81
2022/09/15 06:26:28;;;;;;;0.00;0.00;;;13.80;99.90;;;;;;5072117;28;20041;-80
2022/09/15 06:28:59;;;;;;;0.00;0.00;;;13.80;99.90;;;;;;5071671;28;20049;-80
2022/09/15 06:31:26;;;;;;;0.00;0.00;;;13.90;99.90;;;;;;5088603;28;20048;-80
2022/09/15 06:33:54;;;;;;;0.00;0.00;;;13.90;99.90;;;;;;5071673;28;20092;-80
2022/09/15 06:36:22;;;;;;;0.00;0.00;;;14.00;99.90;;;;;;5071727;28;20107;-80
2022/09/15 06:38:48;;;;;;;0.00;0.00;;;14.00;99.90;;;;;;5071307;28;20480;-80
2022/09/15 06:41:14;;;;;;;0.00;0.00;;;14.10;99.90;;;;;;5071905;28;20136;-81
2022/09/15 06:43:41;;;;;;;0.00;0.00;;;14.20;99.90;;;;;;5071451;28;20052;-80
2022/09/15 06:46:15;;;;;;;0.00;0.00;;;14.30;99.90;;;;;;5038179;28;20059;-81
2022/09/15 06:48:41;;;;;;;0.00;0.00;;;14.30;99.90;;;;;;5087939;28;20045;-81
2022/09/15 06:51:09;;;;;;;0.00;0.00;;;14.40;99.90;;;;;;5070985;28;20053;-81
2022/09/15 06:53:37;;;;;;;0.00;0.00;;;14.40;99.90;;;;;;5088237;28;20053;-81
2022/09/15 06:56:12;;;;;;;0.10;0.08;;;14.50;99.90;;;;;;5070738;28;20435;-81
2022/09/15 06:58:38;;;;;;;;;;;14.50;99.90;;;;;;5071643;28;20114;-80
2022/09/15 07:01:11;;;;;;;0.00;0.00;;;14.60;99.90;;;;;;5070924;28;20348;-81
2022/09/15 07:03:39;;;;;;;0.00;0.00;;;14.60;99.90;;;;;;5088352;28;20045;-81
2022/09/15 07:06:06;;;;;;;0.00;0.00;;;14.60;99.90;;;;;;5071222;28;20055;-80
2022/09/15 07:08:31;;;;;;;0.00;0.00;;;14.70;99.90;;;;;;5071614;28;20061;-81
2022/09/15 07:10:57;;;;;;;0.00;0.00;;;14.80;99.90;;;;;;5070938;28;20396;-80
2022/09/15 07:13:23;;;;;;;0.00;0.00;;;14.80;99.90;;;;;;5070727;28;20048;-80
2022/09/15 07:15:58;;;;;;;0.00;0.00;;;14.90;99.90;;;;;;5070844;28;20056;-81
2022/09/15 07:18:24;;;;;;;0.00;0.00;;;15.00;99.90;;;;;;5070852;28;20135;-81
2022/09/15 07:20:50;;;;;;;0.00;0.00;;;15.20;99.90;;;;;;5087684;28;20080;-81
2022/09/15 07:23:16;;;;;;;0.10;0.05;;;15.20;99.90;;;;;;5070637;28;20055;-81
2022/09/15 07:25:43;;;;;;;0.00;0.00;;;15.20;99.90;;;;;;5087609;28;20088;-81
2022/09/15 07:28:14;;;;;;;0.65;0.20;;;15.30;99.90;;;;;;5070816;28;20148;-81
2022/09/15 07:30:41;;;;;;;0.00;0.00;;;15.30;99.90;;;;;;5087321;28;20049;-81
2022/09/15 07:33:09;;;;;;;0.00;0.00;;;15.40;99.90;;;;;;5070370;28;20144;-81
2022/09/15 07:35:39;;;;;;;0.00;0.00;;;15.40;99.90;;;;;;5087344;28;20040;-81
2022/09/15 07:38:05;;;;;;;11.70;0.45;;;15.40;99.90;;;;;;5087251;28;20496;-81
2022/09/15 07:40:31;;;;;;;0.00;0.00;;;15.50;99.90;;;;;;5070669;28;20092;-81
2022/09/15 07:42:56;;;;;;;0.00;0.00;;;15.60;99.90;;;;;;5069974;28;20095;-80
2022/09/15 07:45:22;;;;;;;0.00;0.00;;;15.70;99.90;;;;;;5087326;28;20480;-81
2022/09/15 07:47:47;;;;;;;0.00;0.00;;;15.70;99.90;;;;;;5086756;28;20056;-81
2022/09/15 07:50:13;;;;;;;0.00;0.00;;;15.80;99.90;;;;;;5070027;28;20145;-81
2022/09/15 07:52:39;;;;;;;0.00;0.00;;;15.90;99.90;;;;;;5070217;28;20052;-81
2022/09/15 07:55:05;;;;;;;0.00;0.00;;;15.90;99.90;;;;;;5086461;28;20049;-81
2022/09/15 07:57:31;;;;;;;0.00;0.00;;;15.90;99.90;;;;;;5087267;28;20049;-81
2022/09/15 07:59:56;;;;;;;0.00;0.00;;;15.90;99.90;;;;;;5070163;28;20060;-81
2022/09/15 08:02:22;;;;;;;0.00;0.00;;;16.00;99.90;;;;;;5069753;28;20385;-81
2022/09/15 08:04:48;;;;;;;0.00;0.00;;;16.10;99.90;;;;;;5069806;28;20071;-80
2022/09/15 08:07:13;;;;;;;0.00;0.00;;;16.10;99.90;;;;;;5086785;28;20433;-80
2022/09/15 08:09:39;;;;;;;0.00;0.00;;;16.10;99.90;;;;;;5069793;28;20366;-81
2022/09/15 08:12:06;;;;;;;0.00;0.00;;;16.10;99.90;;;;;;5060898;28;20120;-81
2022/09/15 08:14:32;;;;;;;0.22;0.08;;;16.20;99.90;;;;;;5020262;28;20048;-82
2022/09/15 08:17:00;;;;;;;0.00;0.00;;;16.20;99.90;;;;;;5035629;28;20063;-82
2022/09/15 08:19:30;;;;;;;1.85;0.00;;;16.20;99.90;;;;;;5035761;28;20152;-82
2022/09/15 08:21:56;;;;;;;0.00;0.00;;;16.40;99.90;;;;;;5052398;28;20082;-82
2022/09/15 08:24:22;;;;;;;0.00;0.00;;;16.50;99.90;;;;;;5068527;28;20060;-82
2022/09/15 08:26:49;;;;;;;0.00;0.00;;;16.60;99.90;;;;;;5052743;28;20056;-80
2022/09/15 08:29:16;;;;;;;0.00;0.00;;;16.70;99.90;;;;;;5036138;28;20045;-81
2022/09/15 08:31:43;;;;;;;0.25;0.10;;;16.70;99.90;;;;;;5035878;28;20432;-80
2022/09/15 08:34:10;;;;;;;0.10;0.10;;;16.70;99.90;;;;;;5052723;28;20370;-81
2022/09/15 08:36:36;;;;;;;1.25;0.10;;;16.70;99.90;;;;;;5035630;28;20243;-81
2022/09/15 08:39:03;;;;;;;0.00;0.00;;;16.70;99.90;;;;;;5036991;28;20586;-80
2022/09/15 08:41:32;;;;;;;0.00;0.00;;;16.60;99.90;;;;;;5052693;28;20055;-80
2022/09/15 08:44:16;;;;;;;0.00;0.00;;;16.60;99.90;;;;;;5035866;28;20157;-80
2022/09/15 08:47:06;;;;;;;0.00;0.00;;;16.70;99.90;;;;;;5035941;28;20045;-80
2022/09/15 08:50:09;;;;;;;0.00;0.00;;;16.90;99.90;;;;;;5036200;28;20049;-80
2022/09/15 08:52:44;;;;;;;0.10;0.05;;;17.20;99.90;;;;;;5035898;28;20107;-81
2022/09/15 08:55:14;;;;;;;0.00;0.00;;;17.50;99.90;;;;;;5052274;28;20049;-81
2022/09/15 08:57:40;;;;;;;0.00;0.00;;;17.60;99.90;;;;;;5035926;28;20102;-81
2022/09/15 09:00:12;;;;;;;0.00;0.00;;;17.60;99.90;;;;;;5052533;28;20045;-81
2022/09/15 09:02:47;;;;;;;0.00;0.00;;;17.60;99.90;;;;;;5036182;28;20144;-81
2022/09/15 09:05:18;;;;;;;;;;;17.50;99.90;;;;;;5036405;28;20084;-80
2022/09/15 09:08:08;;;;;;;0.00;0.00;;;17.50;99.90;;;;;;5035943;28;19921;-79
2022/09/15 09:10:52;;;;;;;0.05;0.00;;;17.40;99.90;;;;;;5036012;28;20392;-79
2022/09/15 09:13:30;;;;;;;0.00;0.00;;;17.50;99.90;;;;;;5056021;28;20037;-79
2022/09/15 09:16:23;;;;;;;0.00;0.00;;;17.50;99.90;;;;;;5039768;28;20052;-80
2022/09/15 09:19:11;;;;;;;0.00;0.00;;;17.50;99.90;;;;;;5040204;28;20045;-84
2022/09/15 09:21:40;;;;;;;0.05;0.00;;;17.50;99.90;;;;;;5039962;28;20052;-80
2022/09/15 09:24:24;;;;;;;0.00;0.00;;;17.50;99.90;;;;;;5056411;28;20045;-80
2022/09/15 09:26:53;;;;;;;0.00;0.00;;;17.40;99.90;;;;;;5039636;28;20055;-80
2022/09/15 09:29:28;;;;;;;0.00;0.00;;;17.60;99.90;;;;;;5056234;28;20063;-80
2022/09/15 09:31:55;;;;;;;0.00;0.00;;;17.80;99.90;;;;;;5039701;28;20049;-80
2022/09/15 09:34:37;;;;;;;0.00;0.00;;;18.10;99.90;;;;;;5039293;28;20048;-81
2022/09/15 09:37:15;;;;;;;0.00;0.00;;;18.20;99.90;;;;;;5039208;28;20051;-82
2022/09/15 09:39:41;;;;;;;0.00;0.00;;;18.30;99.90;;;;;;5039530;28;20100;-81
2022/09/15 09:42:14;;;;;;;0.00;0.00;;;18.40;99.90;;;;;;5036231;28;20052;-81
2022/09/15 09:44:40;;;;;;;0.00;0.00;;;18.50;99.90;;;;;;5037228;28;20489;-81
2022/09/15 09:47:06;;;;;;;0.00;0.00;;;18.60;99.90;;;;;;5054217;28;20051;-82
2022/09/15 09:49:52;;;;;;;0.00;0.00;;;18.60;99.90;;;;;;5054518;28;20052;-81
2022/09/15 09:52:38;;;;;;;0.00;0.00;;;18.70;99.90;;;;;;5053225;28;20053;-81
2022/09/15 09:55:25;;;;;;;0.00;0.00;;;19.00;99.90;;;;;;5053618;28;20468;-81
2022/09/15 09:57:53;;;;;;;0.00;0.00;;;19.10;98.80;;;;;;5037367;28;20067;-81
2022/09/15 10:00:37;;;;;;;0.00;0.00;;;19.20;98.80;;;;;;5038822;28;20493;-80
2022/09/15 10:03:21;;;;;;;0.00;0.00;;;19.30;98.60;;;;;;5038606;28;20060;-80
2022/09/15 10:06:21;;;;;;;0.00;0.00;;;19.50;98.10;;;;;;5038988;28;20048;-81
2022/09/15 10:09:04;;;;;;;0.00;0.00;;;19.60;98.40;;;;;;4978854;28;20062;-80
2022/09/15 10:11:46;;;;;;;0.35;0.10;;;19.50;97.10;;;;;;4978045;28;20059;-81
2022/09/15 10:14:32;;;;;;;0.00;0.00;;;19.50;98.40;;;;;;4962761;28;20421;-81
2022/09/15 10:17:01;;;;;;;3.20;0.60;;;19.40;99.00;;;;;;4962555;28;20078;-81
2022/09/15 10:19:28;;;;;;;0.15;0.15;;;19.30;98.70;;;;;;4979133;28;20104;-81
2022/09/15 10:21:55;;;;;;;0.00;0.00;;;19.20;97.40;;;;;;4978636;28;20046;-81
2022/09/15 10:24:26;;;;;;;0.00;0.00;;;19.10;97.80;;;;;;4977973;28;20100;-81
2022/09/15 10:27:14;;;;;;;0.00;0.00;;;19.00;97.60;;;;;;4978475;28;20077;-80
2022/09/15 10:29:40;;;;;;;0.00;0.00;;;19.00;98.10;;;;;;4978976;28;20046;-80
2022/09/15 10:32:29;;;;;;;0.00;0.00;;;19.00;97.60;;;;;;4978315;28;20112;-80
2022/09/15 10:35:00;;;;;;;1.67;0.38;;;19.00;97.30;;;;;;4962483;28;20050;-80
2022/09/15 10:37:44;;;;;;;0.00;0.00;;;18.90;96.90;;;;;;4961897;28;20100;-80
2022/09/15 10:40:38;;;;;;;0.00;0.00;;;18.90;97.60;;;;;;4978327;28;20085;-80
2022/09/15 10:43:10;;;;;;;0.00;0.00;;;18.90;96.70;;;;;;4962292;28;20086;-79
2022/09/15 10:45:44;;;;;;;0.00;0.00;;;18.90;96.10;;;;;;4997386;28;20056;-80
2022/09/15 10:48:34;;;;;;;0.00;0.00;;;18.90;97.20;;;;;;5055006;28;20048;-79
2022/09/15 10:51:30;;;;;;;0.00;0.00;;;18.80;97.00;;;;;;5053581;28;20145;-80
2022/09/15 10:54:02;;;;;;;;;;;18.80;95.60;;;;;;5055273;28;20044;-79
2022/09/15 10:56:44;;;;;;;0.00;0.00;;;18.80;96.30;;;;;;5054044;28;19926;-80
2022/09/15 10:59:43;;;;;;;0.00;0.00;;;18.80;96.40;;;;;;5038136;28;20493;-80
2022/09/15 11:02:27;;;;;;;0.00;0.00;;;18.90;96.70;;;;;;5037715;28;20056;-80
2022/09/15 11:05:18;;;;;;;0.00;0.00;;;19.30;96.60;;;;;;5037819;28;20111;-80
2022/09/15 11:07:53;;;;;;;0.10;0.00;;;19.80;96.60;;;;;;5037943;28;20136;-80
2022/09/15 11:10:39;;;;;;;0.00;0.00;;;20.10;95.40;;;;;;5054662;28;20094;-80
2022/09/15 11:13:10;;;;;;;0.00;0.00;;;20.40;96.20;;;;;;5037435;28;20056;-80
2022/09/15 11:15:57;;;;;;;0.00;0.00;;;20.80;96.90;;;;;;5054230;28;20041;-80
2022/09/15 11:18:35;;;;;;;0.00;0.00;;;21.20;94.30;;;;;;5054095;28;20045;-80
2022/09/15 11:21:18;;;;;;;0.00;0.00;;;21.50;93.60;;;;;;5037473;28;20053;-80
2022/09/15 11:24:26;;;;;;;0.00;0.00;;;21.60;92.60;;;;;;5038191;28;20045;-80
2022/09/15 11:27:25;;;;;;;0.00;0.00;;;21.80;91.10;;;;;;4978563;28;20062;-80
2022/09/15 11:30:12;;;;;;;2.47;0.55;;;22.00;91.30;;;;;;4976412;28;20043;-80
2022/09/15 11:33:03;;;;;;;0.00;0.00;;;22.10;90.30;;;;;;4959690;28;20073;-80
2022/09/15 11:35:32;;;;;;;0.00;0.00;;;22.10;90.40;;;;;;4976379;28;20057;-80
2022/09/15 11:38:26;;;;;;;0.00;0.00;;;21.90;90.20;;;;;;4961204;28;20534;-80
2022/09/15 11:41:21;;;;;;;0.00;0.00;;;22.10;91.80;;;;;;4959491;28;20429;-80
2022/09/15 11:44:17;;;;;;;0.00;0.00;;;21.90;91.50;;;;;;4977163;28;20577;-80
2022/09/15 11:46:58;;;;;;;0.00;0.00;;;21.30;92.30;;;;;;4977699;28;20077;-80
2022/09/15 11:49:35;;;;;;;0.28;0.10;;;20.60;92.40;;;;;;4960877;28;20050;-80
2022/09/15 11:52:32;;;;;;;0.13;0.13;;;20.10;93.20;;;;;;4960716;28;20681;-80
2022/09/15 11:55:22;;;;;;;0.00;0.00;;;19.70;94.80;;;;;;4961030;28;20058;-80
2022/09/15 11:57:54;;;;;;;0.00;0.00;;;19.30;96.20;;;;;;4925966;28;20046;-80
2022/09/15 12:00:20;;;;;;;0.00;0.00;;;18.80;98.40;;;;;;4941811;28;20065;-81
2022/09/15 12:03:04;;;;;;;0.10;0.03;;;18.50;99.90;;;;;;4957383;28;20570;-81
2022/09/15 12:05:35;;;;;;;0.00;0.00;;;18.30;99.90;;;;;;4941743;28;20042;-80
2022/09/15 12:08:28;;;;;;;0.00;0.00;;;18.00;99.90;;;;;;4957532;28;20101;-80
2022/09/15 12:10:56;;;;;;;0.00;0.00;;;17.80;99.90;;;;;;4941523;28;20521;-81
2022/09/15 12:13:24;;;;;;;0.00;0.00;;;17.80;99.90;;;;;;4941211;28;20059;-81
2022/09/15 12:15:51;;;;;;;0.00;0.00;;;17.70;99.90;;;;;;4941160;28;20082;-81
2022/09/15 12:18:56;;;;;;;0.00;0.00;;;17.70;99.90;;;;;;4957181;28;20050;-81
2022/09/15 12:21:34;;;;;;;0.13;0.13;;;17.80;99.90;;;;;;4941197;28;20065;-81
2022/09/15 12:24:15;;;;;;;0.00;0.00;;;18.10;99.90;;;;;;4941138;28;20134;-81
2022/09/15 12:26:42;;;;;;;0.00;0.00;;;18.30;99.90;;;;;;4941692;28;20046;-80
2022/09/15 12:29:25;;;;;;;0.47;0.17;;;18.30;99.90;;;;;;4957594;28;20063;-81
2022/09/15 12:32:25;;;;;;;0.00;0.00;;;18.40;99.90;;;;;;4957223;28;20517;-81
2022/09/15 12:35:01;;;;;;;0.00;0.00;;;18.40;99.90;;;;;;4988598;28;20068;-81
2022/09/15 12:37:57;;;;;;;0.00;0.00;;;18.30;99.90;;;;;;5052841;28;20388;-80
2022/09/15 12:40:28;;;;;;;0.00;0.00;;;18.20;99.90;;;;;;5036253;28;20080;-80
2022/09/15 12:42:55;;;;;;;0.00;0.00;;;18.00;99.90;;;;;;5052417;28;20087;-81
2022/09/15 12:45:26;;;;;;;0.00;0.00;;;17.90;99.90;;;;;;5052548;28;20052;-81
2022/09/15 12:47:59;;;;;;;0.00;0.00;;;18.00;99.90;;;;;;5052178;28;20139;-80
2022/09/15 12:50:30;;;;;;;0.00;0.00;;;17.90;99.90;;;;;;5036200;28;20094;-80
2022/09/15 12:52:57;;;;;;;0.20;0.00;;;17.90;99.90;;;;;;5035690;28;20040;-80
2022/09/15 12:55:27;;;;;;;0.00;0.00;;;17.80;99.90;;;;;;5035618;28;20061;-81
2022/09/15 12:58:05;;;;;;;0.00;0.00;;;17.70;99.90;;;;;;5035645;28;20069;-81
2022/09/15 13:00:37;;;;;;;0.00;0.00;;;17.50;99.90;;;;;;5036012;28;20492;-81
2022/09/15 13:03:06;;;;;;;0.00;0.00;;;17.50;99.90;;;;;;5052569;28;20049;-80
2022/09/15 13:05:41;;;;;;;0.00;0.00;;;17.40;99.90;;;;;;5052407;28;20408;-81
2022/09/15 13:08:31;;;;;;;0.00;0.00;;;17.40;99.90;;;;;;5036003;28;20103;-81
2022/09/15 13:11:06;;;;;;;0.00;0.00;;;17.40;99.90;;;;;;4975896;28;20047;-81
2022/09/15 13:13:46;;;;;;;0.00;0.00;;;17.40;99.90;;;;;;4975697;28;20524;-80
2022/09/15 13:16:24;;;;;;;0.00;0.00;;;17.50;99.90;;;;;;4959754;28;20046;-80